Terminal Aerodrome Forecast
Issued by NWS Charleston, WV

Current Version | Previous Version | Graphics & Text | Print | Product List | Glossary On
Versions: 1 2 3 4 5 6 7 8 9 10 11 12 13 14 15 16 17 18 19 20 21 22 23
000
FTUS41 KRLX 272339
TAFEKN
TAF
KEKN 272339Z 2800/2824 32003KT P6SM SCT025 BKN035
     FM280300 00000KT 6SM BR BKN035
     FM280500 00000KT 4SM BR SCT025
     FM280700 00000KT 2SM BR SCT015
     FM280900 00000KT 1/4SM FG VV001
     FM281300 00000KT 4SM BR SCT015
     FM281400 00000KT 6SM HZ SCT025
     FM281500 00000KT P6SM SCT035=

USA.gov is the U.S. government's official web portal to all federal, state and local government web resources and services.